Main page
METAR-TAF:

METAR-TAF

Airports :

Savonlinna Airport

Savonlinna, Finland

latitude: 61-57N, longitude: 028-57E, elevation: 95 m

Current weather observation

The report was made 35 minutes ago, at 16:50 UTC
Wind 8 kt from the Southeast
Temperature 24°C
Humidity 41%
Pressure 1015 hPa
Visibility 10 km or more
no clouds below 1500 m and no cumulonimbus

METAR: EFSA 231650Z AUTO 13008KT CAVOK 24/10 Q1015

Time: 20:25 (17:25 UTC)

Forecast

The report was made 5 hours and 59 minutes ago, at 11:26 UTC
Forecast valid from 23 at 12 UTC to 23 at 15 UTC
Wind 9 kt from the Southeast
Visibility 10 km or more
no clouds below 1500 m and no cumulonimbus

TAF: EFSA 231126Z 2312/2315 14009KT CAVOK

Weather observations and forecasts of more than 4000 airports (METAR and TAF reports).

The available stations are represented by yellow and red dots on the map.

Hover mouse over dot to see the name of the station.

Then click to see weather observations and forecasts.

To change the map : click on the green buttons with a black cross to zoom in, on the green button with a dash to zoom out, or on the green arrows for adjacent maps.


METAR-TAF: